createdAt,value
2019-01-24T00:00:26.331Z,64.70
2019-01-24T00:02:55.243Z,65.50
2019-01-24T00:05:23.848Z,65.40
2019-01-24T00:07:52.758Z,65.50
2019-01-24T00:10:21.422Z,65.60
2019-01-24T00:12:49.930Z,64.80
2019-01-24T00:15:18.606Z,65.00
2019-01-24T00:17:47.182Z,65.70
2019-01-24T00:20:16.722Z,66.30
2019-01-24T00:22:45.402Z,66.40
2019-01-24T00:25:14.170Z,66.50
2019-01-24T00:27:42.742Z,65.90
2019-01-24T00:30:13.994Z,65.90
2019-01-24T00:32:43.672Z,66.00
2019-01-24T00:35:12.723Z,65.90
2019-01-24T00:37:41.426Z,66.10
2019-01-24T00:40:18.509Z,66.60
2019-01-24T00:42:47.216Z,66.90
2019-01-24T00:45:16.554Z,66.10
2019-01-24T00:47:45.198Z,66.40
2019-01-24T00:50:15.640Z,66.50
2019-01-24T00:52:44.482Z,67.60
2019-01-24T00:55:16.490Z,67.60
2019-01-24T00:57:45.230Z,67.50
2019-01-24T01:00:19.849Z,67.30
2019-01-24T01:02:48.552Z,67.50
2019-01-24T01:05:17.411Z,67.30
2019-01-24T01:07:46.330Z,67.20
2019-01-24T01:10:15.477Z,66.30
2019-01-24T01:12:44.217Z,66.80
2019-01-24T01:15:16.023Z,67.10
2019-01-24T01:17:45.035Z,67.10
2019-01-24T01:20:16.478Z,66.70
2019-01-24T01:22:45.124Z,66.70
2019-01-24T01:25:14.354Z,67.00
2019-01-24T01:27:43.266Z,67.60
2019-01-24T01:30:17.524Z,67.70
2019-01-24T01:32:46.431Z,67.30
2019-01-24T01:35:15.173Z,68.00
2019-01-24T01:37:43.742Z,68.30
2019-01-24T01:40:15.186Z,68.60
2019-01-24T01:42:43.826Z,68.30
2019-01-24T01:45:18.298Z,68.50
2019-01-24T01:47:47.122Z,68.40
2019-01-24T01:50:18.743Z,68.00
2019-01-24T01:52:47.392Z,68.30
2019-01-24T01:55:16.124Z,68.40
2019-01-24T01:57:44.842Z,67.70
2019-01-24T02:00:18.522Z,67.50
2019-01-24T02:02:47.114Z,68.50
2019-01-24T02:05:16.236Z,67.70
2019-01-24T02:07:44.909Z,68.10
2019-01-24T02:10:18.854Z,68.70
2019-01-24T02:12:47.792Z,68.20
2019-01-24T02:15:17.298Z,68.20
2019-01-24T02:17:46.242Z,69.10
2019-01-24T02:20:23.183Z,69.00
2019-01-24T02:22:52.530Z,68.90
2019-01-24T02:25:21.574Z,69.00
2019-01-24T02:27:50.358Z,68.60
2019-01-24T02:30:22.072Z,68.50
2019-01-24T02:32:51.013Z,69.50
2019-01-24T02:35:19.820Z,69.70
2019-01-24T02:37:48.491Z,69.30
2019-01-24T02:40:17.268Z,68.90
2019-01-24T02:42:46.006Z,69.10
2019-01-24T02:45:17.712Z,70.40
2019-01-24T02:47:46.559Z,69.80
2019-01-24T02:50:17.586Z,69.60
2019-01-24T02:52:46.269Z,69.40
2019-01-24T02:55:16.287Z,69.80
2019-01-24T02:57:44.969Z,69.80
2019-01-24T03:00:16.375Z,70.60
2019-01-24T03:02:45.219Z,70.00
2019-01-24T03:05:16.695Z,70.20
2019-01-24T03:07:45.367Z,70.10
2019-01-24T03:10:15.089Z,69.50
2019-01-24T03:12:43.774Z,69.50
2019-01-24T03:15:17.266Z,69.30
2019-01-24T03:17:46.134Z,69.50
2019-01-24T03:20:16.634Z,69.60
2019-01-24T03:22:45.600Z,69.70
2019-01-24T03:25:16.412Z,69.40
2019-01-24T03:27:45.185Z,69.20
2019-01-24T03:30:18.815Z,68.90
2019-01-24T03:32:47.531Z,69.40
2019-01-24T03:35:21.525Z,69.70
2019-01-24T03:37:50.199Z,69.70
2019-01-24T03:40:18.835Z,69.20
2019-01-24T03:42:47.502Z,69.20
2019-01-24T03:45:17.528Z,69.80
2019-01-24T03:47:46.574Z,70.00
2019-01-24T03:50:17.154Z,70.90
2019-01-24T03:52:45.819Z,71.20
2019-01-24T03:55:16.927Z,70.50
2019-01-24T03:57:45.598Z,69.80
2019-01-24T04:00:19.483Z,69.80
2019-01-24T04:02:48.532Z,70.30
2019-01-24T04:05:17.653Z,71.00
2019-01-24T04:07:46.479Z,70.90
2019-01-24T04:10:17.673Z,70.30
2019-01-24T04:12:46.507Z,69.70
2019-01-24T04:15:20.676Z,70.30
2019-01-24T04:17:49.382Z,69.80
2019-01-24T04:20:18.335Z,69.80
2019-01-24T04:22:46.978Z,69.80
2019-01-24T04:25:15.744Z,70.30
2019-01-24T04:27:44.526Z,70.20
2019-01-24T04:30:18.509Z,69.90
2019-01-24T04:32:47.075Z,69.80
2019-01-24T04:35:20.028Z,69.60
2019-01-24T04:37:46.542Z,69.10
2019-01-24T04:40:19.430Z,69.30
2019-01-24T04:42:48.355Z,69.40
2019-01-24T04:45:18.398Z,69.30
2019-01-24T04:47:47.144Z,69.50
2019-01-24T04:50:17.495Z,69.90
2019-01-24T04:52:46.535Z,69.70
2019-01-24T04:55:17.400Z,69.40
2019-01-24T04:57:46.349Z,69.70
2019-01-24T05:00:18.072Z,69.80
2019-01-24T05:02:46.719Z,70.00
2019-01-24T05:05:15.322Z,69.60
2019-01-24T05:07:44.062Z,70.00
2019-01-24T05:10:12.996Z,70.40
2019-01-24T05:12:41.634Z,71.00
2019-01-24T05:15:10.592Z,70.80
2019-01-24T05:17:39.226Z,71.20
2019-01-24T05:20:11.134Z,71.30
2019-01-24T05:22:39.714Z,71.70
2019-01-24T05:25:13.442Z,71.90
2019-01-24T05:27:42.010Z,71.00
2019-01-24T05:30:17.174Z,70.90
2019-01-24T05:32:45.746Z,71.20
2019-01-24T05:35:14.587Z,71.40
2019-01-24T05:37:43.160Z,72.70
2019-01-24T05:40:11.998Z,72.00
2019-01-24T05:42:40.643Z,72.00
2019-01-24T05:45:12.024Z,73.10
2019-01-24T05:47:40.626Z,71.70
2019-01-24T05:50:13.466Z,72.00
2019-01-24T05:52:42.222Z,72.30
2019-01-24T05:55:12.630Z,72.20
2019-01-24T05:57:41.302Z,71.80
2019-01-24T06:00:17.294Z,72.00
2019-01-24T06:02:45.972Z,71.50
2019-01-24T06:05:15.492Z,71.30
2019-01-24T06:07:44.162Z,70.80
2019-01-24T06:10:15.333Z,70.30
2019-01-24T06:12:43.934Z,70.90
2019-01-24T06:15:15.410Z,71.10
2019-01-24T06:17:44.090Z,71.60
2019-01-24T06:20:13.398Z,71.70
2019-01-24T06:22:42.187Z,72.90
2019-01-24T06:25:12.604Z,72.30
2019-01-24T06:27:41.208Z,72.30
2019-01-24T06:30:18.047Z,72.10
2019-01-24T06:32:46.823Z,72.20
2019-01-24T06:35:15.670Z,71.80
2019-01-24T06:37:44.675Z,71.70
2019-01-24T06:40:17.027Z,72.20
2019-01-24T06:42:45.592Z,71.70
2019-01-24T06:45:16.939Z,71.50
2019-01-24T06:47:45.667Z,72.00
2019-01-24T06:50:16.199Z,71.30
2019-01-24T06:52:44.772Z,71.20
2019-01-24T06:55:19.261Z,71.00
2019-01-24T06:57:47.830Z,71.40
2019-01-24T07:00:20.423Z,71.30
2019-01-24T07:02:49.161Z,71.40
2019-01-24T07:05:17.766Z,71.80
2019-01-24T07:07:46.274Z,71.60
2019-01-24T07:10:17.387Z,71.20
2019-01-24T07:12:45.959Z,71.40
2019-01-24T07:15:17.267Z,71.40
2019-01-24T07:17:45.913Z,71.90
2019-01-24T07:20:16.683Z,71.60
2019-01-24T07:22:45.358Z,71.40
2019-01-24T07:25:22.725Z,71.70
2019-01-24T07:27:51.603Z,71.10
2019-01-24T07:30:21.063Z,71.50
2019-01-24T07:32:49.798Z,72.30
2019-01-24T07:35:19.545Z,71.60
2019-01-24T07:37:48.194Z,70.90
2019-01-24T07:40:19.203Z,71.30
2019-01-24T07:42:48.315Z,71.30
2019-01-24T07:45:26.199Z,71.40
2019-01-24T07:47:54.782Z,72.20
2019-01-24T07:50:23.393Z,71.90
2019-01-24T07:52:51.958Z,71.90
2019-01-24T07:55:20.628Z,71.50
2019-01-24T07:57:49.267Z,71.40
2019-01-24T08:00:20.825Z,72.50
2019-01-24T08:02:49.476Z,71.80
2019-01-24T08:05:18.493Z,71.80
2019-01-24T08:07:47.103Z,72.20
2019-01-24T08:10:18.393Z,71.80
2019-01-24T08:12:47.539Z,71.90
2019-01-24T08:15:20.820Z,72.10
2019-01-24T08:17:50.273Z,72.20
2019-01-24T08:20:20.882Z,72.70
2019-01-24T08:22:49.626Z,72.10
2019-01-24T08:25:18.474Z,71.90
2019-01-24T08:27:47.147Z,70.90
2019-01-24T08:30:26.810Z,71.00
2019-01-24T08:32:55.667Z,71.50
2019-01-24T08:35:24.413Z,70.90
2019-01-24T08:37:53.148Z,71.10
2019-01-24T08:40:23.059Z,71.60
2019-01-24T08:42:52.009Z,71.10
2019-01-24T08:45:20.808Z,70.50
2019-01-24T08:47:49.579Z,70.80
2019-01-24T08:50:22.872Z,71.10
2019-01-24T08:52:51.542Z,71.00
2019-01-24T08:55:29.217Z,70.20
2019-01-24T08:57:58.147Z,70.40
2019-01-24T09:00:27.066Z,70.40
2019-01-24T09:02:55.770Z,69.60
2019-01-24T09:05:24.675Z,70.10
2019-01-24T09:08:14.139Z,70.00
2019-01-24T09:10:42.888Z,70.50
2019-01-24T09:13:11.463Z,69.90
2019-01-24T09:15:40.108Z,69.40
2019-01-24T09:18:09.043Z,69.00
2019-01-24T09:20:37.783Z,69.80
2019-01-24T09:23:07.031Z,70.20
2019-01-24T09:25:35.667Z,69.40
2019-01-24T09:28:04.403Z,68.80
2019-01-24T09:30:33.130Z,69.40
2019-01-24T09:33:01.698Z,70.10
2019-01-24T09:35:30.359Z,67.70
2019-01-24T09:37:58.923Z,69.10
2019-01-24T09:40:27.601Z,69.50
2019-01-24T09:42:56.339Z,69.10
2019-01-24T09:45:26.875Z,69.10
2019-01-24T09:47:57.175Z,68.50
2019-01-24T09:50:27.011Z,67.30
2019-01-24T09:52:55.590Z,66.90
2019-01-24T09:55:24.266Z,65.90
2019-01-24T09:57:53.155Z,65.60
2019-01-24T10:00:24.483Z,66.70
2019-01-24T10:02:53.163Z,65.60
2019-01-24T10:05:22.003Z,65.50
2019-01-24T10:07:50.575Z,65.10
2019-01-24T10:10:21.575Z,65.50
2019-01-24T10:12:50.573Z,65.40
2019-01-24T10:15:20.207Z,65.50
2019-01-24T10:17:48.907Z,65.70
2019-01-24T10:20:22.998Z,65.10
2019-01-24T10:22:51.691Z,64.30
2019-01-24T10:25:23.039Z,63.10
2019-01-24T10:27:51.764Z,63.10
2019-01-24T10:30:25.174Z,62.70
2019-01-24T10:32:53.807Z,64.10
2019-01-24T10:35:22.571Z,61.70
2019-01-24T10:37:51.135Z,63.60
2019-01-24T10:40:22.080Z,62.40
2019-01-24T10:42:50.711Z,62.30
2019-01-24T10:45:20.819Z,61.90
2019-01-24T10:47:50.849Z,63.50
2019-01-24T10:50:21.859Z,63.60
2019-01-24T10:52:50.520Z,63.60
2019-01-24T10:55:38.540Z,64.40
2019-01-24T10:58:07.245Z,63.60
2019-01-24T11:00:38.241Z,62.90
2019-01-24T11:03:09.289Z,62.70
2019-01-24T11:05:37.997Z,61.60
2019-01-24T11:08:06.727Z,63.40
2019-01-24T11:10:35.307Z,62.70
2019-01-24T11:13:04.359Z,63.50
2019-01-24T11:15:32.993Z,63.30
2019-01-24T11:18:01.656Z,61.60
2019-01-24T11:20:30.228Z,61.90
2019-01-24T11:22:58.917Z,61.10
2019-01-24T11:25:28.013Z,61.10
2019-01-24T11:27:56.677Z,59.30
2019-01-24T11:30:29.759Z,59.90
2019-01-24T11:32:58.900Z,60.10
2019-01-24T11:35:30.380Z,60.40
2019-01-24T11:37:59.251Z,59.70
2019-01-24T11:40:28.155Z,59.40
2019-01-24T11:42:56.889Z,59.70
2019-01-24T11:45:28.190Z,60.00
2019-01-24T11:47:56.799Z,59.80
2019-01-24T11:50:25.369Z,59.40
2019-01-24T11:52:53.897Z,59.10
2019-01-24T11:55:22.527Z,59.70
2019-01-24T11:57:51.260Z,59.80
2019-01-24T12:00:26.975Z,60.60
2019-01-24T12:02:55.704Z,61.70
2019-01-24T12:05:24.268Z,61.20
2019-01-24T12:07:53.107Z,61.10
2019-01-24T12:10:26.764Z,61.10
2019-01-24T12:12:55.347Z,61.10
2019-01-24T12:15:28.727Z,60.50
2019-01-24T12:17:57.332Z,60.50
2019-01-24T12:20:26.528Z,60.70
2019-01-24T12:22:55.339Z,61.30
2019-01-24T12:25:24.051Z,61.80
2019-01-24T12:27:52.688Z,61.90
2019-01-24T12:30:24.071Z,61.00
2019-01-24T12:32:52.811Z,61.10
2019-01-24T12:35:21.547Z,60.70
2019-01-24T12:37:50.248Z,61.00
2019-01-24T12:40:18.917Z,60.60
2019-01-24T12:42:47.772Z,60.20
2019-01-24T12:45:31.158Z,60.60
2019-01-24T12:47:59.751Z,60.30
2019-01-24T12:50:28.416Z,60.60
2019-01-24T12:52:56.979Z,59.60
2019-01-24T12:55:25.733Z,59.60
2019-01-24T12:57:54.563Z,59.60
2019-01-24T13:00:28.680Z,59.40
2019-01-24T13:02:57.239Z,60.10
2019-01-24T13:05:26.765Z,60.00
2019-01-24T13:07:55.472Z,59.40
2019-01-24T13:10:26.905Z,59.50
2019-01-24T13:12:55.637Z,59.40
2019-01-24T13:15:27.161Z,59.50
2019-01-24T13:17:55.885Z,59.60
2019-01-24T13:20:24.539Z,59.90
2019-01-24T13:22:53.111Z,59.80
2019-01-24T13:25:24.512Z,59.70
2019-01-24T13:27:53.210Z,60.70
2019-01-24T13:30:30.217Z,60.90
2019-01-24T13:32:58.843Z,60.70
2019-01-24T13:35:27.594Z,60.50
2019-01-24T13:37:56.294Z,60.90
2019-01-24T13:40:27.327Z,61.00
2019-01-24T13:42:57.331Z,60.90
2019-01-24T13:45:34.185Z,61.30
2019-01-24T13:48:02.848Z,61.00
2019-01-24T13:50:31.511Z,61.20
2019-01-24T13:53:00.138Z,61.60
2019-01-24T13:55:28.800Z,61.50
2019-01-24T13:57:57.503Z,61.70
2019-01-24T14:00:28.640Z,61.20
2019-01-24T14:03:09.715Z,61.50
2019-01-24T14:05:38.382Z,62.70
2019-01-24T14:08:07.011Z,62.00
2019-01-24T14:10:35.672Z,62.00
2019-01-24T14:13:04.475Z,61.50
2019-01-24T14:15:33.070Z,61.90
2019-01-24T14:18:01.705Z,61.50
2019-01-24T14:20:30.332Z,62.20
2019-01-24T14:22:59.007Z,62.10
2019-01-24T14:25:27.559Z,61.70
2019-01-24T14:27:56.171Z,61.60
2019-01-24T14:30:28.923Z,61.20
2019-01-24T14:32:57.594Z,61.50
2019-01-24T14:35:26.193Z,61.50
2019-01-24T14:37:54.814Z,62.10
2019-01-24T14:40:23.543Z,61.70
2019-01-24T14:42:52.215Z,61.40
2019-01-24T14:45:27.287Z,61.50
2019-01-24T14:47:55.993Z,61.80
2019-01-24T14:50:27.627Z,63.40
2019-01-24T14:52:56.449Z,62.90
2019-01-24T14:55:25.146Z,62.60
2019-01-24T14:57:54.024Z,62.60
2019-01-24T15:00:31.517Z,63.00
2019-01-24T15:03:00.858Z,63.50
2019-01-24T15:05:29.564Z,63.40
2019-01-24T15:07:58.388Z,63.20
2019-01-24T15:10:27.289Z,63.40
2019-01-24T15:12:56.238Z,63.50
2019-01-24T15:15:25.342Z,63.10
2019-01-24T15:17:53.970Z,63.10
2019-01-24T15:20:22.639Z,63.30
2019-01-24T15:22:51.207Z,63.90
2019-01-24T15:25:24.027Z,63.50
2019-01-24T15:27:52.583Z,64.20
2019-01-24T15:30:27.213Z,63.80
2019-01-24T15:32:55.879Z,63.80
2019-01-24T15:35:24.603Z,63.50
2019-01-24T15:37:54.611Z,63.90
2019-01-24T15:40:26.340Z,64.20
2019-01-24T15:42:55.019Z,64.30
2019-01-24T15:45:23.650Z,64.30
2019-01-24T15:47:52.425Z,64.20
2019-01-24T15:50:22.620Z,64.30
2019-01-24T15:52:51.444Z,64.10
2019-01-24T15:55:20.083Z,64.10
2019-01-24T15:57:48.779Z,64.20
2019-01-24T16:00:23.639Z,64.50
2019-01-24T16:02:52.443Z,63.80
2019-01-24T16:05:40.448Z,64.60
2019-01-24T16:08:09.090Z,64.20
2019-01-24T16:10:37.681Z,64.10
2019-01-24T16:13:06.377Z,64.30
2019-01-24T16:15:36.636Z,64.20
2019-01-24T16:18:07.431Z,64.70
2019-01-24T16:20:36.131Z,64.10
2019-01-24T16:23:05.269Z,64.00
2019-01-24T16:25:34.874Z,65.00
2019-01-24T16:28:03.549Z,64.80
2019-01-24T16:30:34.618Z,63.90
2019-01-24T16:33:06.999Z,63.50
2019-01-24T16:35:35.408Z,63.60
2019-01-24T16:38:09.242Z,63.90
2019-01-24T16:40:34.655Z,64.30
2019-01-24T16:43:03.495Z,63.90
2019-01-24T16:45:32.128Z,63.30
2019-01-24T16:48:00.690Z,63.80
2019-01-24T16:50:29.509Z,64.10
2019-01-24T16:52:58.145Z,64.30
2019-01-24T16:55:26.808Z,64.50
2019-01-24T16:57:55.515Z,64.70
2019-01-24T17:00:29.863Z,64.70
2019-01-24T17:02:58.505Z,65.10
2019-01-24T17:05:27.173Z,64.70
2019-01-24T17:07:57.132Z,64.60
2019-01-24T17:10:27.643Z,65.30
2019-01-24T17:12:56.467Z,64.60
2019-01-24T17:15:25.505Z,64.70
2019-01-24T17:17:54.233Z,64.40
2019-01-24T17:20:29.964Z,64.00
2019-01-24T17:22:58.673Z,65.00
2019-01-24T17:25:32.162Z,64.40
2019-01-24T17:28:00.800Z,63.90
2019-01-24T17:30:35.000Z,64.00
2019-01-24T17:33:04.706Z,64.90
2019-01-24T17:35:33.340Z,64.10
2019-01-24T17:38:02.082Z,64.10
2019-01-24T17:40:32.416Z,64.60
2019-01-24T17:43:01.057Z,64.80
2019-01-24T17:45:31.935Z,65.40
2019-01-24T17:48:00.908Z,65.70
2019-01-24T17:50:29.546Z,64.80
2019-01-24T17:52:58.308Z,65.10
2019-01-24T17:55:29.785Z,64.80
2019-01-24T17:57:58.374Z,64.10
2019-01-24T18:00:28.724Z,64.30
2019-01-24T18:02:57.314Z,65.80
2019-01-24T18:05:25.952Z,65.50
2019-01-24T18:07:54.536Z,65.10
2019-01-24T18:10:27.594Z,65.10
2019-01-24T18:12:56.200Z,64.50
2019-01-24T18:15:32.328Z,65.00
2019-01-24T18:18:01.174Z,64.00
2019-01-24T18:20:32.069Z,64.80
2019-01-24T18:23:01.112Z,64.90
2019-01-24T18:25:30.026Z,65.00
2019-01-24T18:27:58.688Z,66.30
2019-01-24T18:30:29.089Z,66.00
2019-01-24T18:32:58.016Z,65.60
2019-01-24T18:35:27.014Z,66.30
2019-01-24T18:37:55.754Z,65.80
2019-01-24T18:40:30.154Z,65.50
2019-01-24T18:42:59.794Z,65.30
2019-01-24T18:45:40.346Z,65.80
2019-01-24T18:48:09.083Z,65.40
2019-01-24T18:50:37.649Z,64.80
2019-01-24T18:53:06.450Z,65.40
2019-01-24T18:55:35.052Z,66.10
2019-01-24T18:58:03.951Z,66.90
2019-01-24T19:00:34.423Z,67.10
2019-01-24T19:03:03.230Z,66.80
2019-01-24T19:05:31.899Z,66.30
2019-01-24T19:08:00.526Z,67.20
2019-01-24T19:10:29.126Z,66.70
2019-01-24T19:12:57.694Z,66.60
2019-01-24T19:15:26.304Z,67.20
2019-01-24T19:17:55.007Z,66.80
2019-01-24T19:20:23.597Z,67.40
2019-01-24T19:22:52.234Z,67.10
2019-01-24T19:25:21.968Z,66.80
2019-01-24T19:27:50.982Z,66.40
2019-01-24T19:30:21.910Z,67.80
2019-01-24T19:32:50.717Z,67.50
2019-01-24T19:35:19.546Z,67.60
2019-01-24T19:37:48.364Z,67.10
2019-01-24T19:40:22.126Z,67.50
2019-01-24T19:42:50.754Z,67.40
2019-01-24T19:45:21.387Z,66.60
2019-01-24T19:47:50.022Z,66.80
2019-01-24T19:50:21.058Z,67.30
2019-01-24T19:52:49.971Z,67.10
2019-01-24T19:55:18.650Z,66.90
2019-01-24T19:57:47.213Z,66.50
2019-01-24T20:00:27.629Z,66.70
2019-01-24T20:02:56.431Z,66.70
2019-01-24T20:05:25.290Z,66.70
2019-01-24T20:07:53.982Z,66.90
2019-01-24T20:10:24.612Z,67.10
2019-01-24T20:12:53.299Z,66.50
2019-01-24T20:15:23.935Z,66.80
2019-01-24T20:17:52.672Z,67.70
2019-01-24T20:20:21.432Z,67.30
2019-01-24T20:22:50.903Z,67.50
2019-01-24T20:25:27.523Z,66.90
2019-01-24T20:27:56.301Z,68.80
2019-01-24T20:30:27.313Z,68.10
2019-01-24T20:32:56.287Z,67.80
2019-01-24T20:35:33.736Z,67.50
2019-01-24T20:38:02.503Z,67.20
2019-01-24T20:40:31.178Z,68.30
2019-01-24T20:42:59.968Z,68.00
2019-01-24T20:45:29.449Z,68.00
2019-01-24T20:47:58.526Z,68.50
2019-01-24T20:50:27.123Z,67.80
2019-01-24T20:52:55.769Z,67.40
2019-01-24T20:55:24.357Z,68.00
2019-01-24T20:57:53.152Z,68.90
2019-01-24T21:00:25.457Z,68.60
2019-01-24T21:02:54.833Z,67.90
2019-01-24T21:05:24.666Z,68.00
2019-01-24T21:07:53.501Z,68.10
2019-01-24T21:10:24.467Z,67.50
2019-01-24T21:12:53.055Z,67.80
2019-01-24T21:15:22.977Z,68.10
2019-01-24T21:17:51.639Z,68.20
2019-01-24T21:20:25.103Z,67.80
2019-01-24T21:22:53.679Z,68.00
2019-01-24T21:25:23.848Z,67.90
2019-01-24T21:27:52.443Z,68.50
2019-01-24T21:30:24.100Z,69.20
2019-01-24T21:32:52.754Z,68.60
2019-01-24T21:35:21.383Z,68.60
2019-01-24T21:37:50.103Z,68.00
2019-01-24T21:40:22.679Z,68.70
2019-01-24T21:42:51.339Z,69.30
2019-01-24T21:45:22.795Z,69.50
2019-01-24T21:47:51.376Z,68.70
2019-01-24T21:50:22.540Z,69.00
2019-01-24T21:52:51.128Z,69.10
2019-01-24T21:55:20.092Z,69.50
2019-01-24T21:57:49.413Z,69.40
2019-01-24T22:00:23.208Z,69.60
2019-01-24T22:02:52.147Z,69.10
2019-01-24T22:05:21.311Z,69.10
2019-01-24T22:07:49.984Z,68.90
2019-01-24T22:10:29.905Z,70.10
2019-01-24T22:12:58.727Z,70.00
2019-01-24T22:15:31.219Z,68.90
2019-01-24T22:18:00.051Z,68.80
2019-01-24T22:20:28.811Z,69.00
2019-01-24T22:22:57.490Z,69.10
2019-01-24T22:25:28.799Z,69.10
2019-01-24T22:27:57.388Z,69.60
2019-01-24T22:30:30.396Z,69.40
2019-01-24T22:32:58.979Z,69.30
2019-01-24T22:35:27.789Z,70.40
2019-01-24T22:37:56.448Z,69.90
2019-01-24T22:40:25.091Z,70.20
2019-01-24T22:42:53.684Z,70.10
2019-01-24T22:45:26.323Z,70.00
2019-01-24T22:47:54.938Z,69.80
2019-01-24T22:50:23.605Z,70.40
2019-01-24T22:52:52.353Z,69.70
2019-01-24T22:55:20.947Z,70.40
2019-01-24T22:57:49.571Z,71.00
2019-01-24T23:00:25.543Z,70.40
2019-01-24T23:02:54.183Z,70.90
2019-01-24T23:05:22.771Z,70.60
2019-01-24T23:07:51.395Z,70.60
2019-01-24T23:10:20.227Z,70.10
2019-01-24T23:12:49.011Z,70.10
2019-01-24T23:15:17.694Z,70.50
2019-01-24T23:17:46.319Z,70.50
2019-01-24T23:20:15.147Z,70.40
2019-01-24T23:22:43.778Z,70.60
2019-01-24T23:25:12.435Z,70.90
2019-01-24T23:27:41.127Z,71.20
2019-01-24T23:30:12.175Z,71.00
2019-01-24T23:32:40.811Z,70.80
2019-01-24T23:35:09.643Z,70.10
2019-01-24T23:37:38.260Z,70.70
2019-01-24T23:40:08.592Z,70.70
2019-01-24T23:42:37.226Z,70.90
2019-01-24T23:45:08.822Z,71.00
2019-01-24T23:47:37.447Z,71.10
2019-01-24T23:50:07.984Z,71.40
2019-01-24T23:52:36.688Z,71.50
2019-01-24T23:55:06.941Z,71.30
2019-01-24T23:57:35.547Z,70.40
